sensor_id;sensor_type;location;lat;lon;timestamp;temperature;humidity
70214;DHT22;60138;55.808;37.078;2022-12-18T00:01:03;-1.98;80.61
70214;DHT22;60138;55.808;37.078;2022-12-18T00:03:29;-1.98;80.64
70214;DHT22;60138;55.808;37.078;2022-12-18T00:05:55;-1.99;80.60
70214;DHT22;60138;55.808;37.078;2022-12-18T00:08:21;-2.00;80.62
70214;DHT22;60138;55.808;37.078;2022-12-18T00:10:47;-1.98;80.66
70214;DHT22;60138;55.808;37.078;2022-12-18T00:13:12;-1.98;80.62
70214;DHT22;60138;55.808;37.078;2022-12-18T00:15:39;-1.98;80.65
70214;DHT22;60138;55.808;37.078;2022-12-18T00:18:05;-1.95;80.68
70214;DHT22;60138;55.808;37.078;2022-12-18T00:20:35;-1.94;80.69
70214;DHT22;60138;55.808;37.078;2022-12-18T00:23:00;-1.95;80.64
70214;DHT22;60138;55.808;37.078;2022-12-18T00:25:26;-1.94;80.68
70214;DHT22;60138;55.808;37.078;2022-12-18T00:27:52;-1.95;80.62
70214;DHT22;60138;55.808;37.078;2022-12-18T00:30:18;-1.93;80.62
70214;DHT22;60138;55.808;37.078;2022-12-18T00:32:44;-1.94;80.68
70214;DHT22;60138;55.808;37.078;2022-12-18T00:35:10;-1.94;80.69
70214;DHT22;60138;55.808;37.078;2022-12-18T00:37:35;-1.93;80.69
70214;DHT22;60138;55.808;37.078;2022-12-18T00:40:02;-1.94;80.64
70214;DHT22;60138;55.808;37.078;2022-12-18T00:42:30;-1.95;80.62
70214;DHT22;60138;55.808;37.078;2022-12-18T00:44:56;-1.93;80.65
70214;DHT22;60138;55.808;37.078;2022-12-18T00:47:21;-1.92;80.60
70214;DHT22;60138;55.808;37.078;2022-12-18T00:49:47;-1.94;80.60
70214;DHT22;60138;55.808;37.078;2022-12-18T00:52:13;-1.93;80.64
70214;DHT22;60138;55.808;37.078;2022-12-18T00:54:39;-1.91;80.57
70214;DHT22;60138;55.808;37.078;2022-12-18T00:57:04;-1.91;80.62
70214;DHT22;60138;55.808;37.078;2022-12-18T00:59:30;-1.91;80.63
70214;DHT22;60138;55.808;37.078;2022-12-18T01:01:56;-1.89;80.69
70214;DHT22;60138;55.808;37.078;2022-12-18T01:04:22;-1.89;80.65
70214;DHT22;60138;55.808;37.078;2022-12-18T01:06:48;-1.90;80.80
70214;DHT22;60138;55.808;37.078;2022-12-18T01:09:13;-1.88;80.73
70214;DHT22;60138;55.808;37.078;2022-12-18T01:11:40;-1.90;80.69
70214;DHT22;60138;55.808;37.078;2022-12-18T01:14:05;-1.90;80.72
70214;DHT22;60138;55.808;37.078;2022-12-18T01:16:31;-1.90;80.69
70214;DHT22;60138;55.808;37.078;2022-12-18T01:18:57;-1.91;80.68
70214;DHT22;60138;55.808;37.078;2022-12-18T01:21:23;-1.89;80.67
70214;DHT22;60138;55.808;37.078;2022-12-18T01:23:56;-1.89;80.68
70214;DHT22;60138;55.808;37.078;2022-12-18T01:26:23;-1.88;80.62
70214;DHT22;60138;55.808;37.078;2022-12-18T01:28:50;-1.87;80.63
70214;DHT22;60138;55.808;37.078;2022-12-18T01:31:20;-1.89;80.62
70214;DHT22;60138;55.808;37.078;2022-12-18T01:33:46;-1.88;80.62
70214;DHT22;60138;55.808;37.078;2022-12-18T01:36:20;-1.89;80.67
70214;DHT22;60138;55.808;37.078;2022-12-18T01:38:48;-1.86;80.68
70214;DHT22;60138;55.808;37.078;2022-12-18T01:41:17;-1.85;80.75
70214;DHT22;60138;55.808;37.078;2022-12-18T01:43:50;-1.85;80.66
70214;DHT22;60138;55.808;37.078;2022-12-18T01:46:19;-1.84;80.65
70214;DHT22;60138;55.808;37.078;2022-12-18T01:48:47;-1.84;80.77
70214;DHT22;60138;55.808;37.078;2022-12-18T01:51:13;-1.83;80.68
70214;DHT22;60138;55.808;37.078;2022-12-18T01:53:41;-1.83;80.75
70214;DHT22;60138;55.808;37.078;2022-12-18T01:56:08;-1.83;80.65
70214;DHT22;60138;55.808;37.078;2022-12-18T01:58:54;-1.82;80.65
70214;DHT22;60138;55.808;37.078;2022-12-18T07:47:16;-2.21;81.98
70214;DHT22;60138;55.808;37.078;2022-12-18T07:49:42;-2.20;82.01
70214;DHT22;60138;55.808;37.078;2022-12-18T07:52:08;-2.18;81.91
70214;DHT22;60138;55.808;37.078;2022-12-18T07:54:33;-2.16;81.91
70214;DHT22;60138;55.808;37.078;2022-12-18T07:56:59;-2.13;81.84
70214;DHT22;60138;55.808;37.078;2022-12-18T07:59:25;-2.09;81.89
70214;DHT22;60138;55.808;37.078;2022-12-18T08:01:50;-2.05;81.90
70214;DHT22;60138;55.808;37.078;2022-12-18T08:04:16;-2.01;81.95
70214;DHT22;60138;55.808;37.078;2022-12-18T08:06:42;-2.00;82.00
70214;DHT22;60138;55.808;37.078;2022-12-18T08:09:10;-1.95;82.07
70214;DHT22;60138;55.808;37.078;2022-12-18T08:11:36;-1.94;82.06
70214;DHT22;60138;55.808;37.078;2022-12-18T08:14:01;-1.93;82.10
70214;DHT22;60138;55.808;37.078;2022-12-18T08:16:27;-1.90;82.10
70214;DHT22;60138;55.808;37.078;2022-12-18T08:18:53;-1.89;82.14
70214;DHT22;60138;55.808;37.078;2022-12-18T08:21:22;-1.90;82.04
70214;DHT22;60138;55.808;37.078;2022-12-18T08:23:50;-1.89;82.03
70214;DHT22;60138;55.808;37.078;2022-12-18T08:26:16;-1.90;81.97
70214;DHT22;60138;55.808;37.078;2022-12-18T08:28:42;-1.90;82.09
70214;DHT22;60138;55.808;37.078;2022-12-18T08:31:08;-1.88;82.04
70214;DHT22;60138;55.808;37.078;2022-12-18T08:33:34;-1.89;82.06
70214;DHT22;60138;55.808;37.078;2022-12-18T08:36:01;-1.90;81.94
70214;DHT22;60138;55.808;37.078;2022-12-18T08:38:27;-1.88;82.01
70214;DHT22;60138;55.808;37.078;2022-12-18T08:41:00;-1.87;81.99
70214;DHT22;60138;55.808;37.078;2022-12-18T08:47:14;-1.90;81.85
70214;DHT22;60138;55.808;37.078;2022-12-18T08:56:44;-1.90;81.84
70214;DHT22;60138;55.808;37.078;2022-12-18T09:00:32;-1.88;81.84
70214;DHT22;60138;55.808;37.078;2022-12-18T09:11:59;-1.89;81.91
70214;DHT22;60138;55.808;37.078;2022-12-18T09:14:24;-1.88;81.89
70214;DHT22;60138;55.808;37.078;2022-12-18T09:24:57;-1.88;82.00
70214;DHT22;60138;55.808;37.078;2022-12-18T09:27:23;-1.87;81.93
70214;DHT22;60138;55.808;37.078;2022-12-18T09:29:48;-1.91;81.92
70214;DHT22;60138;55.808;37.078;2022-12-18T09:32:14;-1.88;81.99
70214;DHT22;60138;55.808;37.078;2022-12-18T09:34:40;-1.88;81.95
70214;DHT22;60138;55.808;37.078;2022-12-18T09:37:05;-1.90;81.89
70214;DHT22;60138;55.808;37.078;2022-12-18T09:39:31;-1.89;81.88
70214;DHT22;60138;55.808;37.078;2022-12-18T09:41:58;-1.90;81.84
70214;DHT22;60138;55.808;37.078;2022-12-18T09:44:34;-1.91;81.83
70214;DHT22;60138;55.808;37.078;2022-12-18T09:47:11;-1.92;81.84
70214;DHT22;60138;55.808;37.078;2022-12-18T09:49:47;-1.93;81.77
70214;DHT22;60138;55.808;37.078;2022-12-18T09:52:20;-1.95;81.79
70214;DHT22;60138;55.808;37.078;2022-12-18T09:54:52;-1.95;81.77
70214;DHT22;60138;55.808;37.078;2022-12-18T09:57:22;-1.95;81.78
70214;DHT22;60138;55.808;37.078;2022-12-18T10:00:04;-1.97;81.78
70214;DHT22;60138;55.808;37.078;2022-12-18T10:02:37;-1.99;81.79
70214;DHT22;60138;55.808;37.078;2022-12-18T10:05:04;-1.99;81.82
70214;DHT22;60138;55.808;37.078;2022-12-18T10:10:17;-2.00;81.80
70214;DHT22;60138;55.808;37.078;2022-12-18T10:21:11;-2.08;81.55
70214;DHT22;60138;55.808;37.078;2022-12-18T10:24:03;-2.09;81.68
70214;DHT22;60138;55.808;37.078;2022-12-18T10:26:33;-2.06;81.64
70214;DHT22;60138;55.808;37.078;2022-12-18T10:29:00;-2.06;81.72
70214;DHT22;60138;55.808;37.078;2022-12-18T10:31:26;-2.04;81.74
70214;DHT22;60138;55.808;37.078;2022-12-18T10:33:53;-2.03;81.75
70214;DHT22;60138;55.808;37.078;2022-12-18T10:36:20;-2.00;81.73
70214;DHT22;60138;55.808;37.078;2022-12-18T10:38:46;-2.02;81.80
70214;DHT22;60138;55.808;37.078;2022-12-18T10:43:43;-2.00;81.89
70214;DHT22;60138;55.808;37.078;2022-12-18T10:48:48;-2.02;81.85
70214;DHT22;60138;55.808;37.078;2022-12-18T10:51:28;-2.04;81.87
70214;DHT22;60138;55.808;37.078;2022-12-18T10:54:06;-2.05;81.90
70214;DHT22;60138;55.808;37.078;2022-12-18T10:56:38;-2.05;82.02
70214;DHT22;60138;55.808;37.078;2022-12-18T10:59:09;-2.04;82.01
70214;DHT22;60138;55.808;37.078;2022-12-18T11:01:50;-2.06;82.05
70214;DHT22;60138;55.808;37.078;2022-12-18T11:04:22;-2.08;82.07
70214;DHT22;60138;55.808;37.078;2022-12-18T11:06:55;-2.14;82.03
70214;DHT22;60138;55.808;37.078;2022-12-18T11:09:24;-2.15;82.07
70214;DHT22;60138;55.808;37.078;2022-12-18T11:11:55;-2.16;82.05
70214;DHT22;60138;55.808;37.078;2022-12-18T11:16:52;-2.19;81.97
70214;DHT22;60138;55.808;37.078;2022-12-18T11:21:57;-2.22;81.97
70214;DHT22;60138;55.808;37.078;2022-12-18T11:24:34;-2.24;81.94
70214;DHT22;60138;55.808;37.078;2022-12-18T11:27:16;-2.28;82.05
70214;DHT22;60138;55.808;37.078;2022-12-18T11:29:43;-2.27;82.10
70214;DHT22;60138;55.808;37.078;2022-12-18T11:34:55;-2.31;82.13
70214;DHT22;60138;55.808;37.078;2022-12-18T11:37:23;-2.33;82.05
70214;DHT22;60138;55.808;37.078;2022-12-18T11:40:03;-2.35;82.08
70214;DHT22;60138;55.808;37.078;2022-12-18T11:50:21;-2.43;81.99
70214;DHT22;60138;55.808;37.078;2022-12-18T11:52:49;-2.44;82.01
70214;DHT22;60138;55.808;37.078;2022-12-18T12:00:31;-2.46;82.04
70214;DHT22;60138;55.808;37.078;2022-12-18T12:03:06;-2.47;82.03
70214;DHT22;60138;55.808;37.078;2022-12-18T12:16:03;-2.47;82.06
70214;DHT22;60138;55.808;37.078;2022-12-18T12:23:47;-2.45;82.16
70214;DHT22;60138;55.808;37.078;2022-12-18T12:26:47;-2.46;82.15
70214;DHT22;60138;55.808;37.078;2022-12-18T12:32:26;-2.47;82.18
70214;DHT22;60138;55.808;37.078;2022-12-18T12:38:08;-2.49;82.17
70214;DHT22;60138;55.808;37.078;2022-12-18T12:40:27;-2.50;82.07
70214;DHT22;60138;55.808;37.078;2022-12-18T12:42:57;-2.53;82.05
70214;DHT22;60138;55.808;37.078;2022-12-18T12:45:31;-2.53;82.04
70214;DHT22;60138;55.808;37.078;2022-12-18T12:48:01;-2.53;82.11
70214;DHT22;60138;55.808;37.078;2022-12-18T12:50:27;-2.53;82.07
70214;DHT22;60138;55.808;37.078;2022-12-18T12:52:57;-2.53;82.13
70214;DHT22;60138;55.808;37.078;2022-12-18T12:55:28;-2.54;82.08
70214;DHT22;60138;55.808;37.078;2022-12-18T12:58:16;-2.57;82.05
70214;DHT22;60138;55.808;37.078;2022-12-18T13:03:41;-2.59;82.10
70214;DHT22;60138;55.808;37.078;2022-12-18T13:06:45;-2.59;82.17
70214;DHT22;60138;55.808;37.078;2022-12-18T13:09:13;-2.60;82.17
70214;DHT22;60138;55.808;37.078;2022-12-18T13:11:41;-2.61;82.28
70214;DHT22;60138;55.808;37.078;2022-12-18T13:14:20;-2.63;82.24
70214;DHT22;60138;55.808;37.078;2022-12-18T13:16:46;-2.63;82.26
70214;DHT22;60138;55.808;37.078;2022-12-18T13:19:22;-2.66;82.26
70214;DHT22;60138;55.808;37.078;2022-12-18T13:21:54;-2.72;82.20
70214;DHT22;60138;55.808;37.078;2022-12-18T13:24:30;-2.74;82.33
70214;DHT22;60138;55.808;37.078;2022-12-18T13:26:56;-2.76;82.29
70214;DHT22;60138;55.808;37.078;2022-12-18T13:29:44;-2.79;82.38
70214;DHT22;60138;55.808;37.078;2022-12-18T13:32:24;-2.81;82.29
70214;DHT22;60138;55.808;37.078;2022-12-18T13:37:53;-2.89;82.41
70214;DHT22;60138;55.808;37.078;2022-12-18T13:48:34;-3.02;82.39
70214;DHT22;60138;55.808;37.078;2022-12-18T13:51:06;-3.04;82.38
70214;DHT22;60138;55.808;37.078;2022-12-18T13:56:05;-3.05;82.44
70214;DHT22;60138;55.808;37.078;2022-12-18T13:58:31;-3.06;82.40
70214;DHT22;60138;55.808;37.078;2022-12-18T14:00:57;-3.11;82.41
70214;DHT22;60138;55.808;37.078;2022-12-18T14:03:26;-3.12;82.36
70214;DHT22;60138;55.808;37.078;2022-12-18T14:05:58;-3.13;82.36
70214;DHT22;60138;55.808;37.078;2022-12-18T14:08:27;-3.15;82.52
70214;DHT22;60138;55.808;37.078;2022-12-18T14:10:55;-3.15;82.40
70214;DHT22;60138;55.808;37.078;2022-12-18T14:13:29;-3.19;82.37
70214;DHT22;60138;55.808;37.078;2022-12-18T14:15:56;-3.23;82.26
70214;DHT22;60138;55.808;37.078;2022-12-18T14:20:50;-3.25;82.30
70214;DHT22;60138;55.808;37.078;2022-12-18T14:23:36;-3.27;82.27
70214;DHT22;60138;55.808;37.078;2022-12-18T14:28:47;-3.27;82.34
70214;DHT22;60138;55.808;37.078;2022-12-18T14:31:27;-3.28;82.40
70214;DHT22;60138;55.808;37.078;2022-12-18T14:33:53;-3.30;82.48
70214;DHT22;60138;55.808;37.078;2022-12-18T14:36:24;-3.31;82.44
70214;DHT22;60138;55.808;37.078;2022-12-18T14:38:55;-3.34;82.46
70214;DHT22;60138;55.808;37.078;2022-12-18T14:41:22;-3.36;82.41
70214;DHT22;60138;55.808;37.078;2022-12-18T14:43:51;-3.39;82.45
70214;DHT22;60138;55.808;37.078;2022-12-18T14:46:37;-3.45;82.39
70214;DHT22;60138;55.808;37.078;2022-12-18T14:52:01;-3.52;82.26
70214;DHT22;60138;55.808;37.078;2022-12-18T14:54:28;-3.54;82.22
70214;DHT22;60138;55.808;37.078;2022-12-18T14:57:03;-3.54;82.26
70214;DHT22;60138;55.808;37.078;2022-12-18T14:59:30;-3.56;82.26
70214;DHT22;60138;55.808;37.078;2022-12-18T15:04:40;-3.58;82.25
70214;DHT22;60138;55.808;37.078;2022-12-18T15:09:39;-3.63;82.26
70214;DHT22;60138;55.808;37.078;2022-12-18T15:12:28;-3.67;82.26
70214;DHT22;60138;55.808;37.078;2022-12-18T15:14:58;-3.71;82.20
70214;DHT22;60138;55.808;37.078;2022-12-18T15:17:24;-3.80;82.07
70214;DHT22;60138;55.808;37.078;2022-12-18T15:19:53;-3.84;82.07
70214;DHT22;60138;55.808;37.078;2022-12-18T15:22:33;-3.91;82.07
70214;DHT22;60138;55.808;37.078;2022-12-18T15:25:00;-3.93;82.15
70214;DHT22;60138;55.808;37.078;2022-12-18T15:27:35;-3.97;82.13
70214;DHT22;60138;55.808;37.078;2022-12-18T15:32:32;-4.12;81.97
70214;DHT22;60138;55.808;37.078;2022-12-18T15:37:36;-4.26;81.87
70214;DHT22;60138;55.808;37.078;2022-12-18T15:40:03;-4.31;81.95
70214;DHT22;60138;55.808;37.078;2022-12-18T15:42:29;-4.35;82.04
70214;DHT22;60138;55.808;37.078;2022-12-18T15:44:55;-4.37;82.04
70214;DHT22;60138;55.808;37.078;2022-12-18T15:47:20;-4.40;81.85
70214;DHT22;60138;55.808;37.078;2022-12-18T15:49:46;-4.48;81.84
70214;DHT22;60138;55.808;37.078;2022-12-18T15:52:13;-4.55;81.78
70214;DHT22;60138;55.808;37.078;2022-12-18T15:54:39;-4.60;81.69
70214;DHT22;60138;55.808;37.078;2022-12-18T15:57:04;-4.65;81.78
70214;DHT22;60138;55.808;37.078;2022-12-18T15:59:30;-4.69;81.79
70214;DHT22;60138;55.808;37.078;2022-12-18T16:01:56;-4.71;81.84
70214;DHT22;60138;55.808;37.078;2022-12-18T16:04:22;-4.76;81.77
70214;DHT22;60138;55.808;37.078;2022-12-18T16:06:49;-4.79;81.66
70214;DHT22;60138;55.808;37.078;2022-12-18T16:09:14;-4.81;81.60
70214;DHT22;60138;55.808;37.078;2022-12-18T16:11:42;-4.84;81.55
70214;DHT22;60138;55.808;37.078;2022-12-18T16:14:32;-4.83;81.50
70214;DHT22;60138;55.808;37.078;2022-12-18T16:17:03;-4.86;81.52
70214;DHT22;60138;55.808;37.078;2022-12-18T16:19:30;-4.85;81.53
70214;DHT22;60138;55.808;37.078;2022-12-18T16:21:57;-4.88;81.46
70214;DHT22;60138;55.808;37.078;2022-12-18T16:24:26;-4.90;81.49
70214;DHT22;60138;55.808;37.078;2022-12-18T16:26:52;-4.91;81.57
70214;DHT22;60138;55.808;37.078;2022-12-18T16:29:19;-4.94;81.59
70214;DHT22;60138;55.808;37.078;2022-12-18T16:31:51;-4.97;81.52
70214;DHT22;60138;55.808;37.078;2022-12-18T16:36:45;-5.07;81.40
70214;DHT22;60138;55.808;37.078;2022-12-18T16:39:11;-5.11;81.36
70214;DHT22;60138;55.808;37.078;2022-12-18T16:41:36;-5.16;81.31
70214;DHT22;60138;55.808;37.078;2022-12-18T16:44:03;-5.22;81.29
70214;DHT22;60138;55.808;37.078;2022-12-18T16:46:29;-5.26;81.23
70214;DHT22;60138;55.808;37.078;2022-12-18T16:48:57;-5.31;81.20
70214;DHT22;60138;55.808;37.078;2022-12-18T16:51:23;-5.37;81.26
70214;DHT22;60138;55.808;37.078;2022-12-18T16:53:49;-5.43;81.30
70214;DHT22;60138;55.808;37.078;2022-12-18T16:56:15;-5.47;81.33
70214;DHT22;60138;55.808;37.078;2022-12-18T16:58:41;-5.54;81.14
70214;DHT22;60138;55.808;37.078;2022-12-18T17:01:10;-5.62;81.08
70214;DHT22;60138;55.808;37.078;2022-12-18T17:03:36;-5.68;81.14
70214;DHT22;60138;55.808;37.078;2022-12-18T17:06:03;-5.72;81.24
70214;DHT22;60138;55.808;37.078;2022-12-18T17:08:29;-5.76;81.20
70214;DHT22;60138;55.808;37.078;2022-12-18T17:10:54;-5.82;81.13
70214;DHT22;60138;55.808;37.078;2022-12-18T17:13:20;-5.88;81.10
70214;DHT22;60138;55.808;37.078;2022-12-18T17:15:46;-5.94;81.01
70214;DHT22;60138;55.808;37.078;2022-12-18T17:18:11;-6.00;81.02
70214;DHT22;60138;55.808;37.078;2022-12-18T17:20:38;-6.05;80.91
70214;DHT22;60138;55.808;37.078;2022-12-18T17:23:03;-6.13;80.94
70214;DHT22;60138;55.808;37.078;2022-12-18T17:25:29;-6.18;80.86
70214;DHT22;60138;55.808;37.078;2022-12-18T17:27:55;-6.23;80.87
70214;DHT22;60138;55.808;37.078;2022-12-18T17:30:20;-6.29;80.85
70214;DHT22;60138;55.808;37.078;2022-12-18T17:32:46;-6.35;80.73
70214;DHT22;60138;55.808;37.078;2022-12-18T17:35:12;-6.39;80.85
70214;DHT22;60138;55.808;37.078;2022-12-18T17:37:38;-6.43;80.91
70214;DHT22;60138;55.808;37.078;2022-12-18T17:40:04;-6.45;80.98
70214;DHT22;60138;55.808;37.078;2022-12-18T17:42:30;-6.45;81.06
70214;DHT22;60138;55.808;37.078;2022-12-18T17:44:55;-6.45;81.04
70214;DHT22;60138;55.808;37.078;2022-12-18T17:47:21;-6.48;81.04
70214;DHT22;60138;55.808;37.078;2022-12-18T17:49:47;-6.48;81.04
70214;DHT22;60138;55.808;37.078;2022-12-18T17:52:12;-6.49;80.91
70214;DHT22;60138;55.808;37.078;2022-12-18T17:54:38;-6.51;80.79
70214;DHT22;60138;55.808;37.078;2022-12-18T17:57:04;-6.51;80.81
70214;DHT22;60138;55.808;37.078;2022-12-18T17:59:30;-6.52;80.85
70214;DHT22;60138;55.808;37.078;2022-12-18T18:01:56;-6.52;80.77
70214;DHT22;60138;55.808;37.078;2022-12-18T18:04:22;-6.55;80.82
70214;DHT22;60138;55.808;37.078;2022-12-18T18:06:47;-6.57;80.72
70214;DHT22;60138;55.808;37.078;2022-12-18T18:09:13;-6.58;80.74
70214;DHT22;60138;55.808;37.078;2022-12-18T18:11:39;-6.61;80.70
70214;DHT22;60138;55.808;37.078;2022-12-18T18:14:10;-6.64;80.76
70214;DHT22;60138;55.808;37.078;2022-12-18T18:16:42;-6.65;80.62
70214;DHT22;60138;55.808;37.078;2022-12-18T18:19:28;-6.65;80.65
70214;DHT22;60138;55.808;37.078;2022-12-18T18:21:54;-6.68;80.66
70214;DHT22;60138;55.808;37.078;2022-12-18T18:24:21;-6.73;80.75
70214;DHT22;60138;55.808;37.078;2022-12-18T18:26:47;-6.76;80.75
70214;DHT22;60138;55.808;37.078;2022-12-18T18:29:16;-6.80;80.67
70214;DHT22;60138;55.808;37.078;2022-12-18T18:31:41;-6.83;80.72
70214;DHT22;60138;55.808;37.078;2022-12-18T18:34:13;-6.88;80.67
70214;DHT22;60138;55.808;37.078;2022-12-18T18:36:38;-6.90;80.68
70214;DHT22;60138;55.808;37.078;2022-12-18T18:39:06;-6.96;80.56
70214;DHT22;60138;55.808;37.078;2022-12-18T18:41:31;-7.00;80.40
70214;DHT22;60138;55.808;37.078;2022-12-18T18:43:57;-7.03;80.49
70214;DHT22;60138;55.808;37.078;2022-12-18T18:46:24;-7.02;80.56
70214;DHT22;60138;55.808;37.078;2022-12-18T18:48:50;-7.03;80.57
70214;DHT22;60138;55.808;37.078;2022-12-18T18:51:17;-7.08;80.49
70214;DHT22;60138;55.808;37.078;2022-12-18T18:53:45;-7.11;80.43
70214;DHT22;60138;55.808;37.078;2022-12-18T18:56:13;-7.16;80.46
70214;DHT22;60138;55.808;37.078;2022-12-18T18:58:39;-7.17;80.44
70214;DHT22;60138;55.808;37.078;2022-12-18T19:01:08;-7.19;80.31
70214;DHT22;60138;55.808;37.078;2022-12-18T19:03:35;-7.22;80.23
70214;DHT22;60138;55.808;37.078;2022-12-18T19:06:03;-7.23;80.24
70214;DHT22;60138;55.808;37.078;2022-12-18T19:08:31;-7.24;80.25
70214;DHT22;60138;55.808;37.078;2022-12-18T19:10:59;-7.25;80.26
70214;DHT22;60138;55.808;37.078;2022-12-18T19:13:28;-7.25;80.30
70214;DHT22;60138;55.808;37.078;2022-12-18T19:16:05;-7.29;80.26
70214;DHT22;60138;55.808;37.078;2022-12-18T19:18:31;-7.33;80.21
70214;DHT22;60138;55.808;37.078;2022-12-18T19:20:59;-7.36;80.07
70214;DHT22;60138;55.808;37.078;2022-12-18T19:23:25;-7.37;80.09
70214;DHT22;60138;55.808;37.078;2022-12-18T19:25:51;-7.37;80.21
70214;DHT22;60138;55.808;37.078;2022-12-18T19:28:17;-7.39;80.14
70214;DHT22;60138;55.808;37.078;2022-12-18T19:30:43;-7.42;80.04
70214;DHT22;60138;55.808;37.078;2022-12-18T19:33:09;-7.46;80.11
70214;DHT22;60138;55.808;37.078;2022-12-18T19:35:35;-7.49;80.04
70214;DHT22;60138;55.808;37.078;2022-12-18T19:38:00;-7.52;80.00
70214;DHT22;60138;55.808;37.078;2022-12-18T19:40:26;-7.56;79.93
70214;DHT22;60138;55.808;37.078;2022-12-18T19:42:52;-7.60;79.96
70214;DHT22;60138;55.808;37.078;2022-12-18T19:45:17;-7.63;79.92
70214;DHT22;60138;55.808;37.078;2022-12-18T19:47:43;-7.67;79.88
70214;DHT22;60138;55.808;37.078;2022-12-18T19:50:09;-7.71;79.78
70214;DHT22;60138;55.808;37.078;2022-12-18T19:52:34;-7.75;79.79
70214;DHT22;60138;55.808;37.078;2022-12-18T19:55:00;-7.78;79.79
70214;DHT22;60138;55.808;37.078;2022-12-18T19:57:26;-7.81;79.77
70214;DHT22;60138;55.808;37.078;2022-12-18T19:59:52;-7.82;79.80
70214;DHT22;60138;55.808;37.078;2022-12-18T20:02:18;-7.83;79.78
70214;DHT22;60138;55.808;37.078;2022-12-18T20:04:43;-7.85;79.78
70214;DHT22;60138;55.808;37.078;2022-12-18T20:07:09;-7.86;79.71
70214;DHT22;60138;55.808;37.078;2022-12-18T20:09:35;-7.89;79.65
70214;DHT22;60138;55.808;37.078;2022-12-18T20:12:01;-7.90;79.67
70214;DHT22;60138;55.808;37.078;2022-12-18T20:14:27;-7.93;79.55
70214;DHT22;60138;55.808;37.078;2022-12-18T20:16:52;-7.93;79.59
70214;DHT22;60138;55.808;37.078;2022-12-18T20:19:18;-7.94;79.49
70214;DHT22;60138;55.808;37.078;2022-12-18T20:21:44;-7.95;79.37
70214;DHT22;60138;55.808;37.078;2022-12-18T20:24:10;-7.96;79.30
70214;DHT22;60138;55.808;37.078;2022-12-18T20:26:36;-7.98;79.16
70214;DHT22;60138;55.808;37.078;2022-12-18T20:29:02;-7.98;79.25
70214;DHT22;60138;55.808;37.078;2022-12-18T20:31:28;-7.97;79.40
70214;DHT22;60138;55.808;37.078;2022-12-18T20:33:55;-7.94;79.46
70214;DHT22;60138;55.808;37.078;2022-12-18T20:36:21;-7.93;79.43
70214;DHT22;60138;55.808;37.078;2022-12-18T20:38:46;-7.96;79.41
70214;DHT22;60138;55.808;37.078;2022-12-18T20:41:17;-7.96;79.30
70214;DHT22;60138;55.808;37.078;2022-12-18T20:43:43;-7.97;79.23
70214;DHT22;60138;55.808;37.078;2022-12-18T20:46:09;-7.99;79.25
70214;DHT22;60138;55.808;37.078;2022-12-18T20:48:36;-7.98;79.31
70214;DHT22;60138;55.808;37.078;2022-12-18T20:51:14;-7.96;79.35
70214;DHT22;60138;55.808;37.078;2022-12-18T20:53:40;-7.98;79.31
70214;DHT22;60138;55.808;37.078;2022-12-18T20:56:21;-7.99;79.40
70214;DHT22;60138;55.808;37.078;2022-12-18T20:58:50;-7.99;79.40
70214;DHT22;60138;55.808;37.078;2022-12-18T21:01:18;-8.03;79.27
70214;DHT22;60138;55.808;37.078;2022-12-18T21:03:45;-8.06;79.24
70214;DHT22;60138;55.808;37.078;2022-12-18T21:06:11;-8.09;79.21
70214;DHT22;60138;55.808;37.078;2022-12-18T21:08:37;-8.08;79.33
70214;DHT22;60138;55.808;37.078;2022-12-18T21:11:33;-8.09;79.27
70214;DHT22;60138;55.808;37.078;2022-12-18T21:13:58;-8.09;79.21
70214;DHT22;60138;55.808;37.078;2022-12-18T21:16:24;-8.13;79.17
70214;DHT22;60138;55.808;37.078;2022-12-18T21:18:50;-8.14;79.12
70214;DHT22;60138;55.808;37.078;2022-12-18T21:21:15;-8.15;79.07
70214;DHT22;60138;55.808;37.078;2022-12-18T21:23:41;-8.18;78.99
70214;DHT22;60138;55.808;37.078;2022-12-18T21:26:17;-8.19;78.92
70214;DHT22;60138;55.808;37.078;2022-12-18T21:28:44;-8.18;78.86
70214;DHT22;60138;55.808;37.078;2022-12-18T21:31:10;-8.16;78.87
70214;DHT22;60138;55.808;37.078;2022-12-18T21:33:36;-8.16;78.97
70214;DHT22;60138;55.808;37.078;2022-12-18T21:36:06;-8.15;78.88
70214;DHT22;60138;55.808;37.078;2022-12-18T21:38:32;-8.18;78.79
70214;DHT22;60138;55.808;37.078;2022-12-18T21:40:57;-8.18;78.77
70214;DHT22;60138;55.808;37.078;2022-12-18T21:43:23;-8.18;78.85
70214;DHT22;60138;55.808;37.078;2022-12-18T21:45:49;-8.14;78.92
70214;DHT22;60138;55.808;37.078;2022-12-18T21:48:14;-8.14;78.94
70214;DHT22;60138;55.808;37.078;2022-12-18T21:50:40;-8.13;78.93
70214;DHT22;60138;55.808;37.078;2022-12-18T21:53:06;-8.13;78.86
70214;DHT22;60138;55.808;37.078;2022-12-18T21:55:31;-8.14;78.75
70214;DHT22;60138;55.808;37.078;2022-12-18T21:57:57;-8.12;78.72
70214;DHT22;60138;55.808;37.078;2022-12-18T22:00:22;-8.12;78.64
70214;DHT22;60138;55.808;37.078;2022-12-18T22:02:48;-8.10;78.59
70214;DHT22;60138;55.808;37.078;2022-12-18T22:05:14;-8.09;78.56
70214;DHT22;60138;55.808;37.078;2022-12-18T22:07:39;-8.08;78.50
70214;DHT22;60138;55.808;37.078;2022-12-18T22:10:06;-8.06;78.47
70214;DHT22;60138;55.808;37.078;2022-12-18T22:12:32;-8.05;78.42
70214;DHT22;60138;55.808;37.078;2022-12-18T22:14:57;-8.01;78.51
70214;DHT22;60138;55.808;37.078;2022-12-18T22:17:23;-8.00;78.53
70214;DHT22;60138;55.808;37.078;2022-12-18T22:19:49;-7.99;78.58
70214;DHT22;60138;55.808;37.078;2022-12-18T22:22:14;-7.98;78.58
70214;DHT22;60138;55.808;37.078;2022-12-18T22:24:40;-7.99;78.58
70214;DHT22;60138;55.808;37.078;2022-12-18T22:27:05;-8.01;78.58
70214;DHT22;60138;55.808;37.078;2022-12-18T22:29:31;-8.00;78.57
70214;DHT22;60138;55.808;37.078;2022-12-18T22:31:57;-7.99;78.59
70214;DHT22;60138;55.808;37.078;2022-12-18T22:34:22;-7.99;78.63
70214;DHT22;60138;55.808;37.078;2022-12-18T22:36:48;-8.00;78.64
70214;DHT22;60138;55.808;37.078;2022-12-18T22:39:19;-7.99;78.59
70214;DHT22;60138;55.808;37.078;2022-12-18T22:41:45;-8.00;78.56
70214;DHT22;60138;55.808;37.078;2022-12-18T22:44:11;-7.97;78.59
70214;DHT22;60138;55.808;37.078;2022-12-18T22:46:43;-7.96;78.50
70214;DHT22;60138;55.808;37.078;2022-12-18T22:49:12;-7.97;78.47
70214;DHT22;60138;55.808;37.078;2022-12-18T22:51:38;-7.97;78.52
70214;DHT22;60138;55.808;37.078;2022-12-18T22:54:03;-7.98;78.54
70214;DHT22;60138;55.808;37.078;2022-12-18T22:56:29;-7.98;78.53
70214;DHT22;60138;55.808;37.078;2022-12-18T22:58:55;-7.98;78.47
70214;DHT22;60138;55.808;37.078;2022-12-18T23:01:26;-7.99;78.49
70214;DHT22;60138;55.808;37.078;2022-12-18T23:03:53;-7.97;78.55
70214;DHT22;60138;55.808;37.078;2022-12-18T23:06:20;-7.98;78.53
70214;DHT22;60138;55.808;37.078;2022-12-18T23:08:47;-7.98;78.51
70214;DHT22;60138;55.808;37.078;2022-12-18T23:11:13;-7.98;78.51
70214;DHT22;60138;55.808;37.078;2022-12-18T23:13:40;-7.97;78.54